KMHK/MHK METAR and TAF weather

Enter ICAO airport designator
Station Type Date Time Source
KMHK METAR 2021/03/01 08:52 UTC NOAA

KMHK 010852Z AUTO 00000KT 10SM CLR M07/M09 A3025 RMK AO2 SLP254 I1001 I3001 T10671094 53002


Station Type Date Time Source
KMHK Decoded METAR 2021/03/01 08:52 UTC NOAA

MANHATTAN REGIONAL AIRPORT, KS, United States (KMHK) 39-08N 96-41W 317M
Mar 01, 2021 - 03:52 AM EST / 2021.03.01 0852 UTC
Wind: Calm:0
Visibility: 10 mile(s):0
Sky conditions: clear
Temperature: 19.9 F (-6.7 C)
Dew Point: 15.1 F (-9.4 C)
Relative Humidity: 81%
Pressure (altimeter): 30.25 in. Hg (1024 hPa)
Pressure tendency: 0.01 inches (0.2 hPa) higher than three hours ago
ob: KMHK 010852Z AUTO 00000KT 10SM CLR M07/M09 A3025 RMK AO2 SLP254 I1001 I3001 T10671094 53002
cycle: 9

Station Type Date Time Source
KMHK TAF 2021/03/01 06:24 UTC NOAA

TAF KMHK 010523Z 0106/0206 VRB02KT P6SM SKC
FM011000 00000KT 4SM MIFG SKC
FM011400 26006KT P6SM SKC
FM012200 36003KT P6SM SKC

Example: see airport list